Terminal Aerodrome Forecast
Issued by NWS Twin Cities, MN

Home | Current Version | Previous Version | Text Only | Print | Product List | Glossary On
Versions: 1 2 3 4 5 6 7 8 9 10 11 12 13 14 15 16 17 18 19 20 21 22 23 24 25
000
FTUS43 KMPX 260500
TAFMSP
TAF
KMSP 260531Z 2606/2712 21005KT P6SM FEW035 BKN050
      TEMPO 2609/2612 5SM BR
     FM261600 25009KT P6SM SCT120 PROB30 2623/2702 -SHRA BKN050=

USA.gov is the U.S. government's official web portal to all federal, state and local government web resources and services.